Time;durP1;ratioP1;P1;durP2;ratioP2;P2;SDS_P1;SDS_P2;PMS_P1;PMS_P2;Temp;Humidity;BMP_temperature;BMP_pressure;BME280_temperature;BME280_humidity;BME280_pressure;Samples;Min_cycle;Max_cycle;Signal;HPM_P1;HPM_P2
2023/11/06 00:00:18;;;;;;;7.47;1.27;;;10.00;99.90;;;;;;4977074;28;36084;-79
2023/11/06 00:02:45;;;;;;;12.00;1.30;;;10.00;99.90;;;;;;4973822;28;38456;-79
2023/11/06 00:05:11;;;;;;;8.00;1.30;;;10.10;99.90;;;;;;4971216;28;40330;-78
2023/11/06 00:07:38;;;;;;;7.93;1.17;;;10.10;99.90;;;;;;4967440;28;36746;-78
2023/11/06 00:10:04;;;;;;;10.63;1.67;;;10.00;99.90;;;;;;4970199;28;37380;-79
2023/11/06 00:12:33;;;;;;;9.47;1.43;;;10.00;99.90;;;;;;4984226;28;37755;-78
2023/11/06 00:14:59;;;;;;;11.80;1.20;;;10.00;99.90;;;;;;4969637;28;37723;-79
2023/11/06 00:17:25;;;;;;;7.03;1.30;;;10.00;99.90;;;;;;4973175;28;39396;-77
2023/11/06 00:19:51;;;;;;;6.47;1.60;;;10.10;99.90;;;;;;4970527;28;36308;-78
2023/11/06 00:22:17;;;;;;;8.00;1.17;;;10.10;99.90;;;;;;4963692;28;38559;-78
2023/11/06 00:24:44;;;;;;;8.27;1.30;;;10.10;99.90;;;;;;4972448;28;37478;-78
2023/11/06 00:27:10;;;;;;;7.03;1.10;;;10.10;99.90;;;;;;4970810;28;38910;-77
2023/11/06 00:29:36;;;;;;;5.93;0.93;;;10.10;99.90;;;;;;4967986;28;35868;-78
2023/11/06 00:32:03;;;;;;;2.90;0.90;;;10.10;99.90;;;;;;4969878;28;40069;-80
2023/11/06 00:34:29;;;;;;;4.13;1.00;;;10.20;99.90;;;;;;4963839;28;37193;-78
2023/11/06 00:36:55;;;;;;;6.80;1.10;;;10.20;99.90;;;;;;4970386;28;39223;-79
2023/11/06 00:39:22;;;;;;;7.30;1.20;;;10.30;99.90;;;;;;4969180;28;37889;-79
2023/11/06 00:41:48;;;;;;;12.10;1.47;;;10.30;99.90;;;;;;4966949;28;38053;-79
2023/11/06 00:44:14;;;;;;;8.00;1.40;;;10.30;99.90;;;;;;4961591;28;37880;-79
2023/11/06 00:46:40;;;;;;;7.73;1.47;;;10.30;99.90;;;;;;4980254;28;36881;-79
2023/11/06 00:49:08;;;;;;;3.47;1.17;;;10.20;99.90;;;;;;4962932;28;35837;-78
2023/11/06 00:51:34;;;;;;;9.70;1.60;;;10.20;99.90;;;;;;4969152;28;38520;-78
2023/11/06 00:54:00;;;;;;;8.03;2.13;;;10.20;99.90;;;;;;4981412;28;37157;-78
2023/11/06 00:56:27;;;;;;;8.67;1.67;;;10.20;99.90;;;;;;4982450;28;39430;-78
2023/11/06 00:58:55;;;;;;;15.43;1.60;;;10.30;99.90;;;;;;4962319;28;37202;-79
2023/11/06 01:01:21;;;;;;;9.27;1.50;;;10.30;99.90;;;;;;4975429;28;38981;-78
2023/11/06 01:03:47;;;;;;;9.07;1.60;;;10.40;99.90;;;;;;4988067;28;37144;-79
2023/11/06 01:06:14;;;;;;;3.23;1.20;;;10.40;99.90;;;;;;4977249;28;38412;-79
2023/11/06 01:08:40;;;;;;;8.87;2.00;;;10.30;99.90;;;;;;4974351;28;36074;-79
2023/11/06 01:11:06;;;;;;;7.43;1.43;;;10.30;99.90;;;;;;4973275;28;39956;-79
2023/11/06 01:13:32;;;;;;;8.83;1.40;;;10.30;99.90;;;;;;4972886;28;37390;-78
2023/11/06 01:15:59;;;;;;;8.33;1.60;;;10.30;99.90;;;;;;4971547;28;37299;-79
2023/11/06 01:18:25;;;;;;;6.37;2.07;;;10.20;99.90;;;;;;4982234;28;37108;-79
2023/11/06 01:20:51;;;;;;;8.90;1.67;;;10.10;99.90;;;;;;4971153;28;39152;-79
2023/11/06 01:23:18;;;;;;;10.67;2.20;;;10.10;99.90;;;;;;4977635;28;39282;-79
2023/11/06 01:25:45;;;;;;;7.60;1.77;;;10.10;99.90;;;;;;4979013;28;37413;-78
2023/11/06 01:28:14;;;;;;;11.90;2.07;;;10.10;99.90;;;;;;4975075;28;38492;-80
2023/11/06 01:30:40;;;;;;;9.77;2.13;;;10.10;99.90;;;;;;4981591;28;37849;-78
2023/11/06 01:33:06;;;;;;;12.67;2.77;;;10.10;99.90;;;;;;4945068;28;37134;-79
2023/11/06 01:35:33;;;;;;;9.17;2.60;;;10.10;99.90;;;;;;4986032;28;37560;-78
2023/11/06 01:38:01;;;;;;;9.93;2.43;;;10.10;99.90;;;;;;4963409;28;37003;-78
2023/11/06 01:40:30;;;;;;;12.03;2.40;;;10.10;99.90;;;;;;4972400;28;48152;-79
2023/11/06 01:42:56;;;;;;;10.33;2.67;;;10.10;99.90;;;;;;4962164;28;38463;-78
2023/11/06 01:45:25;;;;;;;16.30;3.03;;;10.10;99.90;;;;;;4964216;28;38668;-78
2023/11/06 01:47:51;;;;;;;7.50;1.87;;;10.10;99.90;;;;;;4968378;28;37317;-78
2023/11/06 01:50:17;;;;;;;6.33;1.70;;;10.00;99.90;;;;;;4979030;28;40950;-78
2023/11/06 01:52:47;;;;;;;14.20;2.10;;;10.00;99.90;;;;;;4962408;28;36532;-78
2023/11/06 01:55:13;;;;;;;8.77;2.27;;;10.00;99.90;;;;;;4981651;28;37039;-79
2023/11/06 01:57:39;;;;;;;7.23;1.80;;;10.00;99.90;;;;;;4973813;28;37851;-80
2023/11/06 02:00:08;;;;;;;12.60;2.37;;;10.00;99.90;;;;;;4971148;28;37801;-78
2023/11/06 02:02:35;;;;;;;17.83;2.33;;;10.00;99.90;;;;;;5421574;22;37744;-78
2023/11/06 02:05:01;;;;;;;17.33;2.53;;;10.00;99.90;;;;;;4976754;28;38829;-77
2023/11/06 02:07:28;;;;;;;13.57;2.57;;;10.00;99.90;;;;;;4985472;28;36749;-78
2023/11/06 02:09:54;;;;;;;10.03;1.83;;;10.00;99.90;;;;;;4995015;28;39627;-77
2023/11/06 02:12:20;;;;;;;15.07;2.20;;;10.00;99.90;;;;;;4984860;28;37303;-78
2023/11/06 02:14:54;;;;;;;9.20;1.60;;;10.00;99.90;;;;;;4982367;28;38936;-78
2023/11/06 02:17:21;;;;;;;11.73;1.83;;;10.00;99.90;;;;;;4985164;28;36011;-77
2023/11/06 02:19:48;;;;;;;10.47;2.07;;;10.00;99.90;;;;;;4982237;28;40441;-78
2023/11/06 02:22:18;;;;;;;9.80;2.23;;;9.90;99.90;;;;;;4984826;28;38064;-77
2023/11/06 02:24:45;;;;;;;10.23;2.00;;;9.90;99.90;;;;;;4982468;28;38625;-77
2023/11/06 02:27:11;;;;;;;11.37;1.70;;;9.90;99.90;;;;;;4988304;28;38071;-78
2023/11/06 02:29:38;;;;;;;10.00;1.83;;;9.80;99.90;;;;;;4982310;28;40847;-78
2023/11/06 02:32:04;;;;;;;12.90;1.77;;;9.80;99.90;;;;;;4981771;28;38191;-78
2023/11/06 02:34:30;;;;;;;13.93;2.00;;;9.90;99.90;;;;;;4982942;28;38177;-78
2023/11/06 02:36:57;;;;;;;13.87;2.53;;;9.90;99.90;;;;;;4986935;28;37194;-78
2023/11/06 02:39:23;;;;;;;11.80;2.03;;;9.90;99.90;;;;;;4988883;28;39627;-78
2023/11/06 02:41:49;;;;;;;12.43;2.10;;;9.90;99.90;;;;;;4986836;28;38531;-78
2023/11/06 02:44:15;;;;;;;10.27;2.07;;;9.90;99.90;;;;;;4981583;28;39914;-78
2023/11/06 02:46:42;;;;;;;13.10;1.80;;;9.90;99.90;;;;;;4983585;28;37382;-78
2023/11/06 02:49:08;;;;;;;8.20;1.80;;;9.90;99.90;;;;;;4983093;28;38364;-78
2023/11/06 02:51:34;;;;;;;8.47;1.77;;;9.90;99.90;;;;;;4984090;28;37186;-78
2023/11/06 02:54:01;;;;;;;12.27;1.67;;;9.90;99.90;;;;;;4984845;28;38604;-77
2023/11/06 02:56:34;;;;;;;9.97;2.13;;;9.90;99.90;;;;;;4980850;28;47611;-78
2023/11/06 02:59:02;;;;;;;;;;;9.90;99.90;;;;;;4984465;28;39157;-78
2023/11/06 03:01:28;;;;;;;5.57;1.90;;;9.90;99.90;;;;;;4983976;28;49327;-78
2023/11/06 03:03:54;;;;;;;11.83;1.80;;;9.80;99.90;;;;;;4983094;28;39213;-78
2023/11/06 03:06:20;;;;;;;12.20;2.40;;;9.80;99.90;;;;;;4987274;28;34362;-78
2023/11/06 03:08:46;;;;;;;9.13;1.70;;;9.80;99.90;;;;;;4982075;28;39779;-78
2023/11/06 03:11:13;;;;;;;6.30;1.70;;;9.80;99.90;;;;;;4982164;28;39038;-78
2023/11/06 03:13:39;;;;;;;15.37;2.70;;;9.70;99.90;;;;;;4987357;28;36927;-78
2023/11/06 03:16:06;;;;;;;13.43;1.90;;;9.80;99.90;;;;;;4984510;28;35069;-78
2023/11/06 03:18:32;;;;;;;10.87;2.40;;;9.80;99.90;;;;;;4986637;28;39129;-78
2023/11/06 03:21:00;;;;;;;11.67;1.50;;;9.80;99.90;;;;;;4987324;28;39115;-78
2023/11/06 03:23:26;;;;;;;9.60;1.60;;;9.80;99.90;;;;;;4981768;28;37450;-77
2023/11/06 03:25:52;;;;;;;10.33;1.83;;;9.80;99.90;;;;;;4986314;28;38882;-77
2023/11/06 03:28:18;;;;;;;11.40;1.60;;;9.80;99.90;;;;;;4986157;28;38896;-78
2023/11/06 03:30:44;;;;;;;10.43;2.07;;;9.80;99.90;;;;;;4986506;28;38867;-78
2023/11/06 03:33:11;;;;;;;9.53;1.70;;;9.80;99.90;;;;;;4983515;28;39141;-77
2023/11/06 03:35:37;;;;;;;6.63;1.73;;;9.80;99.90;;;;;;4986841;28;36389;-78
2023/11/06 03:38:03;;;;;;;10.83;1.60;;;9.80;99.90;;;;;;4988647;28;40497;-78
2023/11/06 03:40:29;;;;;;;12.23;1.63;;;9.80;99.90;;;;;;4983730;28;38506;-78
2023/11/06 03:42:55;;;;;;;9.70;2.03;;;9.80;99.90;;;;;;4983795;28;37175;-77
2023/11/06 03:45:21;;;;;;;10.30;1.33;;;9.80;99.90;;;;;;4983114;28;36129;-78
2023/11/06 03:47:48;;;;;;;10.03;1.67;;;9.70;99.90;;;;;;4988069;28;39747;-77
2023/11/06 03:50:15;;;;;;;5.67;1.30;;;9.80;99.90;;;;;;4972364;28;38143;-78
2023/11/06 03:52:41;;;;;;;5.60;1.00;;;9.70;99.90;;;;;;4976574;28;37165;-77
2023/11/06 03:55:08;;;;;;;3.10;1.00;;;9.70;99.90;;;;;;4981267;28;38817;-78
2023/11/06 03:57:34;;;;;;;8.57;1.20;;;9.70;99.90;;;;;;4980018;28;41816;-78
2023/11/06 04:00:00;;;;;;;8.53;1.20;;;9.70;99.90;;;;;;4981801;28;39095;-77
2023/11/06 04:02:26;;;;;;;9.97;1.23;;;9.70;99.90;;;;;;4975162;28;38241;-78
2023/11/06 04:04:52;;;;;;;9.90;1.43;;;9.70;99.90;;;;;;4982511;28;37989;-77
2023/11/06 04:07:19;;;;;;;8.13;1.40;;;9.70;99.90;;;;;;4986092;28;39859;-78
2023/11/06 04:09:45;;;;;;;5.47;0.83;;;9.60;99.90;;;;;;4979591;28;38361;-78
2023/11/06 04:12:11;;;;;;;8.80;1.30;;;9.60;99.90;;;;;;4982283;28;38373;-78
2023/11/06 04:14:39;;;;;;;5.13;1.40;;;9.60;99.90;;;;;;4986891;28;38258;-77
2023/11/06 04:17:05;;;;;;;10.23;1.40;;;9.60;99.90;;;;;;5003942;28;39504;-78
2023/11/06 04:19:31;;;;;;;7.93;1.50;;;9.60;99.90;;;;;;4986257;28;40467;-78
2023/11/06 04:21:57;;;;;;;11.73;1.60;;;9.60;99.90;;;;;;4986756;28;38215;-78
2023/11/06 04:24:23;;;;;;;12.90;1.57;;;9.60;99.90;;;;;;4987395;28;37641;-77
2023/11/06 04:26:50;;;;;;;6.27;1.00;;;9.60;99.90;;;;;;4985657;28;38383;-78
2023/11/06 04:29:16;;;;;;;6.93;1.30;;;9.60;99.90;;;;;;4983418;28;38689;-78
2023/11/06 04:31:43;;;;;;;7.57;1.30;;;9.60;99.90;;;;;;4987753;28;38733;-78
2023/11/06 04:34:09;;;;;;;9.40;1.63;;;9.60;99.90;;;;;;4991530;28;38111;-76
2023/11/06 04:36:35;;;;;;;9.10;1.30;;;9.60;99.90;;;;;;4990931;28;36861;-77
2023/11/06 04:39:04;;;;;;;9.03;1.30;;;9.60;99.90;;;;;;4978729;28;37059;-78
2023/11/06 04:41:30;;;;;;;6.57;1.10;;;9.70;99.90;;;;;;4970482;28;38066;-78
2023/11/06 04:43:56;;;;;;;10.87;1.57;;;9.70;99.90;;;;;;4979591;28;36108;-78
2023/11/06 04:46:23;;;;;;;8.70;1.57;;;9.70;99.90;;;;;;4984029;28;40157;-78
2023/11/06 04:48:49;;;;;;;9.37;1.47;;;9.70;99.90;;;;;;4980642;28;37675;-78
2023/11/06 04:51:16;;;;;;;10.23;1.40;;;9.80;99.90;;;;;;4981260;28;37074;-78
2023/11/06 04:53:42;;;;;;;7.47;1.50;;;9.80;99.90;;;;;;4981437;28;37954;-77
2023/11/06 04:56:08;;;;;;;7.93;1.17;;;9.80;99.90;;;;;;4981929;28;39321;-78
2023/11/06 04:58:35;;;;;;;9.77;2.30;;;9.80;99.90;;;;;;4991349;28;40098;-78
2023/11/06 05:01:06;;;;;;;8.07;1.43;;;9.80;99.90;;;;;;4987036;28;38557;-79
2023/11/06 05:03:33;;;;;;;13.03;1.37;;;9.80;99.90;;;;;;4987658;28;36320;-78
2023/11/06 05:05:59;;;;;;;8.93;1.90;;;9.80;99.90;;;;;;4977252;28;37767;-78
2023/11/06 05:08:28;;;;;;;7.87;1.50;;;9.80;99.90;;;;;;4986315;28;38944;-78
2023/11/06 05:10:55;;;;;;;8.97;1.50;;;9.80;99.90;;;;;;4989763;28;39837;-78
2023/11/06 05:13:22;;;;;;;12.13;1.73;;;9.80;99.90;;;;;;4988440;28;36813;-78
2023/11/06 05:15:48;;;;;;;11.50;2.00;;;9.70;99.90;;;;;;4989492;28;38551;-78
2023/11/06 05:18:15;;;;;;;8.63;1.60;;;9.80;99.90;;;;;;4989738;28;38562;-78
2023/11/06 05:20:44;;;;;;;17.43;2.73;;;9.80;99.90;;;;;;4991410;28;36693;-79
2023/11/06 05:23:12;;;;;;;11.43;1.80;;;9.80;99.90;;;;;;4996573;28;37066;-78
2023/11/06 05:25:38;;;;;;;14.47;1.97;;;9.80;99.90;;;;;;4992882;28;38638;-78
2023/11/06 05:28:04;;;;;;;13.93;2.00;;;9.80;99.90;;;;;;4986359;28;37007;-78
2023/11/06 05:30:31;;;;;;;17.07;2.17;;;9.80;99.90;;;;;;4985726;28;37411;-78
2023/11/06 05:32:57;;;;;;;6.60;1.63;;;9.80;99.90;;;;;;4980216;28;36479;-78
2023/11/06 05:35:24;;;;;;;14.77;2.30;;;9.80;99.90;;;;;;4984556;28;39637;-78
2023/11/06 05:37:52;;;;;;;11.77;2.00;;;9.80;99.90;;;;;;4991797;28;39958;-78
2023/11/06 05:40:18;;;;;;;14.03;2.40;;;9.80;99.90;;;;;;4987165;28;38277;-77
2023/11/06 05:42:44;;;;;;;15.30;3.10;;;9.80;99.90;;;;;;4990813;28;38696;-79
2023/11/06 05:45:11;;;;;;;11.27;1.80;;;9.80;99.90;;;;;;4981207;28;39462;-77
2023/11/06 05:47:37;;;;;;;10.23;2.40;;;9.80;99.90;;;;;;4988102;28;38851;-77
2023/11/06 05:50:04;;;;;;;17.33;2.30;;;9.80;99.90;;;;;;4990964;28;37130;-78
2023/11/06 05:52:30;;;;;;;9.43;1.80;;;9.70;99.90;;;;;;4992563;28;38772;-77
2023/11/06 05:54:56;;;;;;;13.83;1.90;;;9.80;99.90;;;;;;4994074;28;39667;-78
2023/11/06 05:57:23;;;;;;;14.57;1.70;;;9.80;99.90;;;;;;4986881;28;39120;-78
2023/11/06 05:59:49;;;;;;;12.27;3.13;;;9.90;99.90;;;;;;4997500;28;40362;-79
2023/11/06 06:02:15;;;;;;;13.27;1.90;;;9.90;99.90;;;;;;5013874;28;35798;-79
2023/11/06 06:04:41;;;;;;;9.43;2.27;;;10.00;99.90;;;;;;5001796;28;39822;-79
2023/11/06 06:07:08;;;;;;;10.50;2.03;;;9.90;99.90;;;;;;4999355;28;39241;-79
2023/11/06 06:09:36;;;;;;;15.63;2.63;;;9.80;99.90;;;;;;4993671;28;36912;-78
2023/11/06 06:12:03;;;;;;;14.77;2.00;;;9.80;99.90;;;;;;5000597;28;38564;-79
2023/11/06 06:14:29;;;;;;;9.60;1.90;;;9.80;99.90;;;;;;5005637;28;47071;-80
2023/11/06 06:16:56;;;;;;;16.43;2.00;;;9.80;99.90;;;;;;5001746;28;37402;-78
2023/11/06 06:19:23;;;;;;;12.87;2.30;;;9.80;99.90;;;;;;4996273;28;38676;-79
2023/11/06 06:21:49;;;;;;;16.07;3.00;;;9.80;99.90;;;;;;4994463;28;37539;-79
2023/11/06 06:24:17;;;;;;;6.77;1.27;;;9.90;99.90;;;;;;4992773;28;39316;-78
2023/11/06 06:26:43;;;;;;;8.17;1.40;;;9.90;99.90;;;;;;5003065;28;38054;-79
2023/11/06 06:29:09;;;;;;;9.17;2.40;;;9.90;99.90;;;;;;4991381;28;37061;-79
2023/11/06 06:31:35;;;;;;;15.00;2.00;;;9.80;99.90;;;;;;4989363;28;37770;-78
2023/11/06 06:34:02;;;;;;;11.43;1.97;;;9.80;99.90;;;;;;4985811;28;40064;-79
2023/11/06 06:36:28;;;;;;;10.30;1.97;;;9.80;99.90;;;;;;4980663;28;39936;-78
2023/11/06 06:38:54;;;;;;;9.17;1.30;;;9.70;99.90;;;;;;4989290;28;38672;-78
2023/11/06 06:41:21;;;;;;;13.83;1.67;;;9.70;99.90;;;;;;4977458;28;38208;-77
2023/11/06 06:43:48;;;;;;;9.97;1.97;;;9.70;99.90;;;;;;4976197;28;40334;-77
2023/11/06 06:46:14;;;;;;;9.17;1.73;;;9.70;99.90;;;;;;4954199;28;38990;-77
2023/11/06 06:48:40;;;;;;;10.97;1.50;;;9.70;99.90;;;;;;4953245;28;37811;-77
2023/11/06 06:51:07;;;;;;;9.93;2.20;;;9.70;99.90;;;;;;4958271;28;37466;-77
2023/11/06 06:53:34;;;;;;;8.30;1.70;;;9.60;99.90;;;;;;4968482;28;38465;-77
2023/11/06 06:56:00;;;;;;;8.33;1.47;;;9.60;99.90;;;;;;4959679;28;39837;-76
2023/11/06 06:58:27;;;;;;;10.53;1.80;;;9.70;99.90;;;;;;4959687;28;39897;-77
2023/11/06 07:00:53;;;;;;;12.43;2.03;;;9.70;99.90;;;;;;4961349;28;36866;-77
2023/11/06 07:03:19;;;;;;;7.23;1.67;;;9.70;99.90;;;;;;4959527;28;35936;-76
2023/11/06 07:05:47;;;;;;;7.13;1.10;;;9.60;99.90;;;;;;4958382;28;41142;-76
2023/11/06 07:08:13;;;;;;;9.23;1.40;;;9.60;99.90;;;;;;4954647;28;38524;-77
2023/11/06 07:10:39;;;;;;;7.87;1.70;;;9.60;99.90;;;;;;4956409;28;36842;-77
2023/11/06 07:13:06;;;;;;;13.30;1.73;;;9.70;99.90;;;;;;4962005;28;40215;-77
2023/11/06 07:15:32;;;;;;;6.40;1.53;;;9.70;99.90;;;;;;4958491;28;38584;-77
2023/11/06 07:17:59;;;;;;;8.37;1.63;;;9.70;99.90;;;;;;4960540;28;37174;-77
2023/11/06 07:20:25;;;;;;;6.70;1.30;;;9.70;99.90;;;;;;4957387;28;37130;-77
2023/11/06 07:22:52;;;;;;;10.57;1.50;;;9.70;99.90;;;;;;4956253;28;38003;-77
2023/11/06 07:25:18;;;;;;;7.10;1.13;;;9.70;99.90;;;;;;4952432;28;39180;-77
2023/11/06 07:27:44;;;;;;;9.53;1.40;;;9.70;99.90;;;;;;4954719;28;41083;-77
2023/11/06 07:30:11;;;;;;;7.97;1.33;;;9.70;99.90;;;;;;4947564;28;39289;-78
2023/11/06 07:32:37;;;;;;;9.13;1.63;;;9.70;99.90;;;;;;4947393;28;40129;-77
2023/11/06 07:35:04;;;;;;;9.70;1.30;;;9.80;99.90;;;;;;4950325;28;38849;-77
2023/11/06 07:37:30;;;;;;;9.23;1.23;;;9.80;99.90;;;;;;4954314;28;48391;-78
2023/11/06 07:39:57;;;;;;;5.80;1.13;;;10.00;99.90;;;;;;4981722;28;36389;-77
2023/11/06 07:42:23;;;;;;;7.00;1.30;;;10.00;99.90;;;;;;4985957;28;38867;-77
2023/11/06 07:44:49;;;;;;;8.90;1.33;;;10.10;99.90;;;;;;4985397;28;39742;-77
2023/11/06 07:47:15;;;;;;;9.77;1.33;;;10.20;99.90;;;;;;4964834;28;39795;-77
2023/11/06 07:49:41;;;;;;;6.17;1.67;;;10.20;99.90;;;;;;4951340;28;39623;-77
2023/11/06 07:52:09;;;;;;;6.07;1.40;;;10.30;99.90;;;;;;4950642;28;38441;-77
2023/11/06 07:54:43;;;;;;;16.10;2.07;;;10.40;99.90;;;;;;4949555;28;39864;-77
2023/11/06 07:57:09;;;;;;;11.97;2.20;;;10.40;99.90;;;;;;4951904;28;39324;-76
2023/11/06 07:59:42;;;;;;;10.27;1.80;;;10.50;99.90;;;;;;4953326;28;37992;-75
2023/11/06 08:02:10;;;;;;;13.07;2.88;;;10.40;99.90;;;;;;4948651;28;38850;-76
2023/11/06 08:04:40;;;;;;;16.97;2.63;;;10.40;99.90;;;;;;4956816;28;37176;-76
2023/11/06 08:07:06;;;;;;;21.77;3.27;;;10.30;99.90;;;;;;4945423;28;37202;-78
2023/11/06 08:09:33;;;;;;;13.77;2.93;;;10.30;99.90;;;;;;4954537;28;36967;-77
2023/11/06 08:12:00;;;;;;;20.87;3.50;;;10.30;99.90;;;;;;4951121;28;39227;-76
2023/11/06 08:14:26;;;;;;;17.33;3.17;;;10.20;99.90;;;;;;4964920;28;38872;-76
2023/11/06 08:16:52;;;;;;;18.90;3.67;;;10.30;99.90;;;;;;4955362;28;37984;-77
2023/11/06 08:19:19;;;;;;;15.90;2.90;;;10.30;99.90;;;;;;4953514;28;37048;-76
2023/11/06 08:21:45;;;;;;;17.70;3.00;;;10.40;99.90;;;;;;4949664;28;38062;-76
2023/11/06 08:24:11;;;;;;;16.03;3.27;;;10.50;99.90;;;;;;4946452;28;37280;-76
2023/11/06 08:26:37;;;;;;;15.10;3.13;;;10.50;99.90;;;;;;4964678;28;38759;-76
2023/11/06 08:29:04;;;;;;;13.63;3.40;;;10.50;99.90;;;;;;4948281;28;35583;-77
2023/11/06 08:31:30;;;;;;;15.27;3.00;;;10.50;99.90;;;;;;4949678;28;38681;-77
2023/11/06 08:33:56;;;;;;;18.47;2.80;;;10.50;99.90;;;;;;4950030;28;37262;-77
2023/11/06 08:36:22;;;;;;;18.07;2.67;;;10.50;99.90;;;;;;4954281;28;38680;-76
2023/11/06 08:38:49;;;;;;;10.27;2.83;;;10.50;99.90;;;;;;4952824;28;37235;-76
2023/11/06 08:41:15;;;;;;;13.30;2.57;;;10.60;99.90;;;;;;4953364;28;37825;-77
2023/11/06 08:43:41;;;;;;;15.67;2.53;;;10.70;99.90;;;;;;4955757;28;37703;-77
2023/11/06 08:46:08;;;;;;;18.90;3.10;;;10.70;99.90;;;;;;4965950;28;38728;-78
2023/11/06 08:48:34;;;;;;;10.77;1.80;;;10.70;99.90;;;;;;5002730;28;36384;-79
2023/11/06 08:51:00;;;;;;;18.03;2.57;;;10.70;99.90;;;;;;4986093;28;38756;-79
2023/11/06 08:53:26;;;;;;;12.50;1.80;;;10.70;99.90;;;;;;4962688;28;38702;-77
2023/11/06 08:55:52;;;;;;;16.00;2.37;;;10.70;99.90;;;;;;4945778;28;38359;-76
2023/11/06 08:58:19;;;;;;;14.33;2.10;;;10.70;99.90;;;;;;4950377;28;37868;-77
2023/11/06 09:00:47;;;;;;;11.70;2.17;;;10.60;99.90;;;;;;4944736;28;39452;-76
2023/11/06 09:03:16;;;;;;;11.70;2.00;;;10.50;99.90;;;;;;4964145;28;37344;-76
2023/11/06 09:05:43;;;;;;;10.93;1.93;;;10.50;99.90;;;;;;4951815;28;38050;-76
2023/11/06 09:08:09;;;;;;;15.07;3.00;;;10.50;99.90;;;;;;4971679;28;37967;-76
2023/11/06 09:10:35;;;;;;;9.37;1.50;;;10.60;99.90;;;;;;4953243;28;37865;-76
2023/11/06 09:13:02;;;;;;;16.83;3.57;;;10.70;99.90;;;;;;4956099;28;40077;-76
2023/11/06 09:15:28;;;;;;;12.50;1.90;;;10.80;99.90;;;;;;4950120;28;47453;-76
2023/11/06 09:17:54;;;;;;;7.43;2.10;;;10.90;99.90;;;;;;4972939;28;36163;-76
2023/11/06 09:20:21;;;;;;;7.80;1.97;;;11.00;99.90;;;;;;4952700;28;40576;-76
2023/11/06 09:22:47;;;;;;;15.47;2.10;;;11.10;99.90;;;;;;4952903;28;39370;-76
2023/11/06 09:25:13;;;;;;;10.03;1.93;;;11.20;99.90;;;;;;4956564;28;37957;-76
2023/11/06 09:27:44;;;;;;;14.80;2.27;;;11.20;99.90;;;;;;4950283;28;37578;-76
2023/11/06 09:30:11;;;;;;;11.73;2.00;;;11.20;99.90;;;;;;4952133;28;40610;-75
2023/11/06 09:32:37;;;;;;;8.77;2.00;;;11.20;99.90;;;;;;4951061;28;40316;-76
2023/11/06 09:35:04;;;;;;;12.47;2.07;;;11.30;99.90;;;;;;4972958;28;38617;-77
2023/11/06 09:37:33;;;;;;;11.52;1.95;;;11.50;99.90;;;;;;4957761;28;47258;-76
2023/11/06 09:40:01;;;;;;;11.48;1.80;;;11.50;99.90;;;;;;4961780;28;39601;-75
2023/11/06 09:42:27;;;;;;;13.98;1.83;;;11.50;99.90;;;;;;4958034;28;39296;-75
2023/11/06 09:44:54;;;;;;;12.32;2.53;;;11.70;99.90;;;;;;4962383;28;38235;-75
2023/11/06 09:47:20;;;;;;;11.40;1.98;;;11.80;99.90;;;;;;4957546;28;38087;-76
2023/11/06 09:50:02;;;;;;;13.88;2.38;;;11.90;99.90;;;;;;4975244;28;39466;-76
2023/11/06 09:52:32;;;;;;;11.95;2.03;;;12.00;99.90;;;;;;4950670;28;38605;-76
2023/11/06 09:55:00;;;;;;;16.17;2.30;;;12.00;99.90;;;;;;4954937;28;38467;-75
2023/11/06 09:57:26;;;;;;;9.13;1.88;;;11.90;99.90;;;;;;4958538;28;38374;-76
2023/11/06 09:59:53;;;;;;;8.23;1.90;;;11.90;99.90;;;;;;4956972;28;39280;-75
2023/11/06 10:02:22;;;;;;;14.30;1.92;;;11.90;99.90;;;;;;4953483;28;38411;-75
2023/11/06 10:04:49;;;;;;;11.18;1.75;;;11.90;99.90;;;;;;4955239;28;37169;-76
2023/11/06 10:07:52;;;;;;;12.43;1.70;;;11.80;99.90;;;;;;4957619;28;35133;-76
2023/11/06 10:10:21;;;;;;;13.82;2.00;;;11.60;99.90;;;;;;4958627;28;37671;-76
2023/11/06 10:13:09;;;;;;;9.05;1.52;;;11.60;99.90;;;;;;4958359;28;37814;-76
2023/11/06 10:15:37;;;;;;;5.95;1.58;;;11.60;99.90;;;;;;4970854;28;47996;-76
2023/11/06 10:18:12;;;;;;;14.07;2.03;;;11.60;99.90;;;;;;4962858;28;38013;-75
2023/11/06 10:20:43;;;;;;;8.80;2.40;;;11.80;99.90;;;;;;4966251;28;38648;-75
2023/11/06 10:23:09;;;;;;;12.38;2.28;;;11.90;99.90;;;;;;4965576;28;37782;-76
2023/11/06 10:25:37;;;;;;;8.40;1.50;;;11.90;99.90;;;;;;4970793;28;40758;-75
2023/11/06 10:28:19;;;;;;;12.38;1.70;;;11.90;99.90;;;;;;4987815;28;37996;-75
2023/11/06 10:30:52;;;;;;;8.68;1.77;;;11.90;99.90;;;;;;4968504;28;41090;-76
2023/11/06 10:33:21;;;;;;;10.95;1.80;;;11.90;99.90;;;;;;4966494;28;39138;-75
2023/11/06 10:35:47;;;;;;;10.18;1.80;;;11.80;99.90;;;;;;4965962;28;37859;-76
2023/11/06 10:38:33;;;;;;;10.98;1.40;;;11.80;99.90;;;;;;4959642;28;38247;-76
2023/11/06 10:41:13;;;;;;;7.88;0.98;;;11.80;99.90;;;;;;4970217;28;40203;-76
2023/11/06 10:43:41;;;;;;;4.15;1.00;;;11.80;99.90;;;;;;4985126;28;47097;-76
2023/11/06 10:46:10;;;;;;;3.95;1.25;;;11.80;99.90;;;;;;4986784;28;40336;-77
2023/11/06 10:48:53;;;;;;;4.72;0.85;;;11.70;99.90;;;;;;4984120;28;36443;-76
2023/11/06 10:51:21;;;;;;;3.05;0.80;;;11.80;99.90;;;;;;4987340;28;37738;-76
2023/11/06 10:53:49;;;;;;;3.70;0.98;;;11.70;99.90;;;;;;4987552;28;38757;-75
2023/11/06 10:56:16;;;;;;;4.75;0.82;;;11.70;99.90;;;;;;4974306;28;38204;-76
2023/11/06 10:58:43;;;;;;;4.95;1.00;;;11.80;99.90;;;;;;4955852;28;37410;-76
2023/11/06 11:01:10;;;;;;;9.23;1.88;;;11.80;99.90;;;;;;4964993;28;39001;-76
2023/11/06 11:03:38;;;;;;;6.13;1.75;;;11.80;99.90;;;;;;4956252;28;37153;-75
2023/11/06 11:06:08;;;;;;;8.18;1.05;;;11.80;99.90;;;;;;4959313;28;37940;-77
2023/11/06 11:08:35;;;;;;;9.05;1.70;;;11.80;99.90;;;;;;4954180;28;37370;-76
2023/11/06 11:11:05;;;;;;;6.25;1.33;;;11.80;99.90;;;;;;4959189;28;37680;-75
2023/11/06 11:13:32;;;;;;;9.13;1.75;;;12.00;99.90;;;;;;4960537;28;48030;-75
2023/11/06 11:16:38;;;;;;;6.88;2.00;;;12.00;99.90;;;;;;4955358;28;38781;-76
2023/11/06 11:19:40;;;;;;;9.38;2.10;;;12.00;99.90;;;;;;4955993;28;47768;-76
2023/11/06 11:22:13;;;;;;;8.52;1.70;;;11.90;99.90;;;;;;4896264;28;39948;-75
2023/11/06 11:24:45;;;;;;;12.32;1.70;;;12.00;99.90;;;;;;4951093;28;38983;-76
2023/11/06 11:27:12;;;;;;;8.07;1.58;;;12.10;99.90;;;;;;4952933;28;37132;-75
2023/11/06 11:29:54;;;;;;;7.03;1.55;;;12.10;99.90;;;;;;4957434;28;36714;-75
2023/11/06 11:32:49;;;;;;;13.13;2.20;;;12.00;99.90;;;;;;4955895;28;38246;-76
2023/11/06 11:35:17;;;;;;;8.30;1.95;;;11.90;99.90;;;;;;4953543;28;40030;-76
2023/11/06 11:37:56;;;;;;;9.18;1.85;;;11.80;99.90;;;;;;4955649;28;38299;-77
2023/11/06 11:40:24;;;;;;;13.10;1.92;;;11.80;99.90;;;;;;4957253;28;36598;-76
2023/11/06 11:42:56;;;;;;;9.70;2.05;;;11.80;99.90;;;;;;4953427;28;38669;-78
2023/11/06 11:45:31;;;;;;;9.00;2.08;;;11.80;99.90;;;;;;4957512;28;41632;-77
2023/11/06 11:47:57;;;;;;;10.57;2.35;;;11.90;99.90;;;;;;4957366;28;38773;-77
2023/11/06 11:50:26;;;;;;;9.00;1.60;;;11.80;99.90;;;;;;4962369;28;36134;-77
2023/11/06 11:52:53;;;;;;;10.05;1.45;;;11.90;99.90;;;;;;4961543;28;39687;-78
2023/11/06 11:55:38;;;;;;;6.80;1.80;;;12.00;99.90;;;;;;4966110;28;38670;-77
2023/11/06 11:58:09;;;;;;;8.75;1.65;;;11.90;99.90;;;;;;4963663;28;38754;-77
2023/11/06 12:00:40;;;;;;;7.57;1.42;;;12.00;99.90;;;;;;4964390;28;37005;-76
2023/11/06 12:03:10;;;;;;;5.78;1.30;;;12.10;99.90;;;;;;4963593;28;37887;-77
2023/11/06 12:05:38;;;;;;;6.78;1.30;;;12.10;99.90;;;;;;4980151;28;39259;-77
2023/11/06 12:08:20;;;;;;;6.63;1.30;;;12.10;99.90;;;;;;4961034;28;40213;-77
2023/11/06 12:10:47;;;;;;;;;;;12.10;99.90;;;;;;4965790;28;37477;-77
2023/11/06 12:13:14;;;;;;;6.85;1.35;;;12.10;99.90;;;;;;4969595;28;38757;-78
2023/11/06 12:15:41;;;;;;;5.25;1.20;;;12.00;99.90;;;;;;4968449;28;39096;-77
2023/11/06 12:18:12;;;;;;;6.32;1.30;;;12.10;99.90;;;;;;4963952;28;38707;-76
2023/11/06 12:20:39;;;;;;;7.30;1.70;;;12.20;99.90;;;;;;4961092;28;37433;-76
2023/11/06 12:23:07;;;;;;;8.27;2.13;;;12.20;99.90;;;;;;4960355;28;38512;-77
2023/11/06 12:25:34;;;;;;;9.30;1.33;;;12.30;99.90;;;;;;4964231;28;39316;-77
2023/11/06 12:28:13;;;;;;;5.10;1.45;;;12.30;99.90;;;;;;4966626;28;38925;-76
2023/11/06 12:30:43;;;;;;;5.82;1.50;;;12.30;99.90;;;;;;4961344;28;48739;-77
2023/11/06 12:33:14;;;;;;;4.28;1.13;;;12.30;99.90;;;;;;4959627;28;38165;-77
2023/11/06 12:35:41;;;;;;;9.05;1.67;;;12.60;99.90;;;;;;4960875;28;38982;-78
2023/11/06 12:38:08;;;;;;;8.90;1.13;;;12.60;99.90;;;;;;4959958;28;38822;-76
2023/11/06 12:40:44;;;;;;;8.50;1.85;;;12.50;99.90;;;;;;4976906;28;37795;-76
2023/11/06 12:43:15;;;;;;;6.90;1.10;;;12.60;99.90;;;;;;4960990;28;39808;-76
2023/11/06 12:45:43;;;;;;;5.13;1.20;;;12.80;99.90;;;;;;4960566;28;39030;-77
2023/11/06 12:48:20;;;;;;;5.95;1.13;;;12.90;99.90;;;;;;4961048;28;37008;-77
2023/11/06 12:50:56;;;;;;;7.95;1.20;;;13.00;99.90;;;;;;4964504;28;36475;-79